sensor_id;sensor_type;location;lat;lon;timestamp;temperature;humidity
60701;DHT22;46541;49.894;10.886;2023-02-28T00:00:37;0.80;99.90
60701;DHT22;46541;49.894;10.886;2023-02-28T00:03:04;0.80;99.90
60701;DHT22;46541;49.894;10.886;2023-02-28T00:05:31;0.70;99.90
60701;DHT22;46541;49.894;10.886;2023-02-28T00:07:57;0.70;99.90
60701;DHT22;46541;49.894;10.886;2023-02-28T00:10:26;0.70;99.90
60701;DHT22;46541;49.894;10.886;2023-02-28T00:12:56;0.70;99.90
60701;DHT22;46541;49.894;10.886;2023-02-28T00:15:25;0.70;99.90
60701;DHT22;46541;49.894;10.886;2023-02-28T00:17:52;0.70;99.90
60701;DHT22;46541;49.894;10.886;2023-02-28T00:20:19;0.60;99.90
60701;DHT22;46541;49.894;10.886;2023-02-28T00:22:48;0.60;99.90
60701;DHT22;46541;49.894;10.886;2023-02-28T00:25:18;0.60;99.90
60701;DHT22;46541;49.894;10.886;2023-02-28T00:27:46;0.60;99.90
60701;DHT22;46541;49.894;10.886;2023-02-28T00:30:18;0.50;99.90
60701;DHT22;46541;49.894;10.886;2023-02-28T00:32:45;0.50;99.90
60701;DHT22;46541;49.894;10.886;2023-02-28T00:35:12;0.50;99.90
60701;DHT22;46541;49.894;10.886;2023-02-28T00:37:39;0.50;99.90
60701;DHT22;46541;49.894;10.886;2023-02-28T00:40:06;0.50;99.90
60701;DHT22;46541;49.894;10.886;2023-02-28T00:42:34;0.40;99.90
60701;DHT22;46541;49.894;10.886;2023-02-28T00:45:02;0.40;99.90
60701;DHT22;46541;49.894;10.886;2023-02-28T00:47:31;0.40;99.90
60701;DHT22;46541;49.894;10.886;2023-02-28T00:49:59;0.50;99.90
60701;DHT22;46541;49.894;10.886;2023-02-28T00:52:26;0.50;99.90
60701;DHT22;46541;49.894;10.886;2023-02-28T00:54:53;0.50;99.90
60701;DHT22;46541;49.894;10.886;2023-02-28T00:57:20;0.50;99.90
60701;DHT22;46541;49.894;10.886;2023-02-28T00:59:47;0.50;99.90
60701;DHT22;46541;49.894;10.886;2023-02-28T01:02:14;0.50;99.90
60701;DHT22;46541;49.894;10.886;2023-02-28T01:04:41;0.50;99.90
60701;DHT22;46541;49.894;10.886;2023-02-28T01:07:07;0.50;99.90
60701;DHT22;46541;49.894;10.886;2023-02-28T01:09:34;0.50;99.90
60701;DHT22;46541;49.894;10.886;2023-02-28T01:12:01;0.40;99.90
60701;DHT22;46541;49.894;10.886;2023-02-28T01:14:28;0.40;99.90
60701;DHT22;46541;49.894;10.886;2023-02-28T01:16:54;0.40;99.90
60701;DHT22;46541;49.894;10.886;2023-02-28T01:19:21;0.40;99.90
60701;DHT22;46541;49.894;10.886;2023-02-28T01:21:48;0.30;99.90
60701;DHT22;46541;49.894;10.886;2023-02-28T01:24:15;0.30;99.90
60701;DHT22;46541;49.894;10.886;2023-02-28T01:26:41;0.30;99.90
60701;DHT22;46541;49.894;10.886;2023-02-28T01:29:08;0.30;99.90
60701;DHT22;46541;49.894;10.886;2023-02-28T01:31:35;0.40;99.90
60701;DHT22;46541;49.894;10.886;2023-02-28T01:34:02;0.40;99.90
60701;DHT22;46541;49.894;10.886;2023-02-28T01:36:29;0.40;99.90
60701;DHT22;46541;49.894;10.886;2023-02-28T01:38:56;0.40;99.90
60701;DHT22;46541;49.894;10.886;2023-02-28T01:41:34;0.40;99.90
60701;DHT22;46541;49.894;10.886;2023-02-28T01:46:47;0.30;99.90
60701;DHT22;46541;49.894;10.886;2023-02-28T01:49:16;0.20;99.90
60701;DHT22;46541;49.894;10.886;2023-02-28T01:51:46;0.20;99.90
60701;DHT22;46541;49.894;10.886;2023-02-28T01:54:22;0.20;99.90
60701;DHT22;46541;49.894;10.886;2023-02-28T01:57:00;0.20;99.90
60701;DHT22;46541;49.894;10.886;2023-02-28T01:59:38;0.20;99.90
60701;DHT22;46541;49.894;10.886;2023-02-28T02:02:17;0.30;99.90
60701;DHT22;46541;49.894;10.886;2023-02-28T02:05:15;0.20;99.90
60701;DHT22;46541;49.894;10.886;2023-02-28T02:07:42;0.20;99.90
60701;DHT22;46541;49.894;10.886;2023-02-28T02:10:21;0.20;99.90
60701;DHT22;46541;49.894;10.886;2023-02-28T02:16:28;0.10;99.90
60701;DHT22;46541;49.894;10.886;2023-02-28T02:22:27;0.10;99.90
60701;DHT22;46541;49.894;10.886;2023-02-28T02:36:33;0.10;99.90
60701;DHT22;46541;49.894;10.886;2023-02-28T02:41:53;0.00;99.90
60701;DHT22;46541;49.894;10.886;2023-02-28T02:44:27;0.00;99.90
60701;DHT22;46541;49.894;10.886;2023-02-28T02:46:59;0.00;99.90
60701;DHT22;46541;49.894;10.886;2023-02-28T02:49:32;0.00;99.90
60701;DHT22;46541;49.894;10.886;2023-02-28T02:52:06;0.00;99.90
60701;DHT22;46541;49.894;10.886;2023-02-28T02:54:37;-0.10;99.90
60701;DHT22;46541;49.894;10.886;2023-02-28T02:57:09;0.00;99.90
60701;DHT22;46541;49.894;10.886;2023-02-28T02:59:39;-0.10;99.90
60701;DHT22;46541;49.894;10.886;2023-02-28T03:02:11;-0.10;99.90
60701;DHT22;46541;49.894;10.886;2023-02-28T03:04:43;0.00;99.90
60701;DHT22;46541;49.894;10.886;2023-02-28T03:07:12;0.00;99.90
60701;DHT22;46541;49.894;10.886;2023-02-28T03:09:38;0.00;99.90
60701;DHT22;46541;49.894;10.886;2023-02-28T03:12:10;0.00;99.90
60701;DHT22;46541;49.894;10.886;2023-02-28T03:17:47;0.00;99.90
60701;DHT22;46541;49.894;10.886;2023-02-28T03:23:21;0.10;99.90
60701;DHT22;46541;49.894;10.886;2023-02-28T03:34:18;0.00;99.90
60701;DHT22;46541;49.894;10.886;2023-02-28T03:36:49;0.00;99.90
60701;DHT22;46541;49.894;10.886;2023-02-28T03:39:24;0.00;99.90
60701;DHT22;46541;49.894;10.886;2023-02-28T03:42:09;0.00;99.90
60701;DHT22;46541;49.894;10.886;2023-02-28T03:47:09;0.00;99.90
60701;DHT22;46541;49.894;10.886;2023-02-28T03:52:48;0.00;99.90
60701;DHT22;46541;49.894;10.886;2023-02-28T03:55:17;0.00;99.90
60701;DHT22;46541;49.894;10.886;2023-02-28T04:00:35;0.00;99.90
60701;DHT22;46541;49.894;10.886;2023-02-28T04:03:04;0.00;99.90
60701;DHT22;46541;49.894;10.886;2023-02-28T04:05:32;0.00;99.90
60701;DHT22;46541;49.894;10.886;2023-02-28T04:08:06;0.00;99.90
60701;DHT22;46541;49.894;10.886;2023-02-28T04:10:33;0.00;99.90
60701;DHT22;46541;49.894;10.886;2023-02-28T04:13:00;0.00;99.90
60701;DHT22;46541;49.894;10.886;2023-02-28T04:15:27;0.00;99.90
60701;DHT22;46541;49.894;10.886;2023-02-28T04:17:53;0.00;99.90
60701;DHT22;46541;49.894;10.886;2023-02-28T04:20:20;0.00;99.90
60701;DHT22;46541;49.894;10.886;2023-02-28T04:22:47;-0.10;99.90
60701;DHT22;46541;49.894;10.886;2023-02-28T04:25:13;0.00;99.90
60701;DHT22;46541;49.894;10.886;2023-02-28T04:27:40;0.00;99.90
60701;DHT22;46541;49.894;10.886;2023-02-28T04:30:07;0.00;99.90
60701;DHT22;46541;49.894;10.886;2023-02-28T04:32:34;0.00;99.90
60701;DHT22;46541;49.894;10.886;2023-02-28T04:35:01;0.00;99.90
60701;DHT22;46541;49.894;10.886;2023-02-28T04:37:29;-0.10;99.90
60701;DHT22;46541;49.894;10.886;2023-02-28T04:39:55;-0.10;99.90
60701;DHT22;46541;49.894;10.886;2023-02-28T04:42:22;-0.10;99.90
60701;DHT22;46541;49.894;10.886;2023-02-28T04:44:49;-0.10;99.90
60701;DHT22;46541;49.894;10.886;2023-02-28T04:47:15;-0.10;99.90
60701;DHT22;46541;49.894;10.886;2023-02-28T04:49:42;-0.10;99.90
60701;DHT22;46541;49.894;10.886;2023-02-28T04:52:09;-0.10;99.90
60701;DHT22;46541;49.894;10.886;2023-02-28T04:54:36;-0.10;99.90
60701;DHT22;46541;49.894;10.886;2023-02-28T04:57:05;-0.10;99.90
60701;DHT22;46541;49.894;10.886;2023-02-28T04:59:32;-0.20;99.90
60701;DHT22;46541;49.894;10.886;2023-02-28T05:01:59;-0.20;99.90
60701;DHT22;46541;49.894;10.886;2023-02-28T05:04:26;-0.20;99.90
60701;DHT22;46541;49.894;10.886;2023-02-28T05:06:53;-0.20;99.90
60701;DHT22;46541;49.894;10.886;2023-02-28T05:09:19;-0.20;99.90
60701;DHT22;46541;49.894;10.886;2023-02-28T05:11:46;-0.20;99.90
60701;DHT22;46541;49.894;10.886;2023-02-28T05:14:14;-0.20;99.90
60701;DHT22;46541;49.894;10.886;2023-02-28T05:16:41;-0.20;99.90
60701;DHT22;46541;49.894;10.886;2023-02-28T05:19:07;-0.20;99.90
60701;DHT22;46541;49.894;10.886;2023-02-28T05:21:47;-0.20;99.90
60701;DHT22;46541;49.894;10.886;2023-02-28T05:24:15;-0.20;99.90
60701;DHT22;46541;49.894;10.886;2023-02-28T05:26:50;-0.20;99.90
60701;DHT22;46541;49.894;10.886;2023-02-28T05:29:18;-0.10;99.90
60701;DHT22;46541;49.894;10.886;2023-02-28T05:31:45;-0.10;99.90
60701;DHT22;46541;49.894;10.886;2023-02-28T05:34:12;-0.20;99.90
60701;DHT22;46541;49.894;10.886;2023-02-28T05:36:42;-0.20;99.90
60701;DHT22;46541;49.894;10.886;2023-02-28T05:39:09;-0.20;99.90
60701;DHT22;46541;49.894;10.886;2023-02-28T05:41:43;-0.10;99.90
60701;DHT22;46541;49.894;10.886;2023-02-28T05:44:10;-0.10;99.90
60701;DHT22;46541;49.894;10.886;2023-02-28T05:46:37;-0.10;99.90
60701;DHT22;46541;49.894;10.886;2023-02-28T05:49:04;-0.10;99.90
60701;DHT22;46541;49.894;10.886;2023-02-28T05:51:31;-0.10;99.90
60701;DHT22;46541;49.894;10.886;2023-02-28T05:54:00;-0.10;99.90
60701;DHT22;46541;49.894;10.886;2023-02-28T05:56:28;-0.20;99.90
60701;DHT22;46541;49.894;10.886;2023-02-28T05:58:55;-0.20;99.90
60701;DHT22;46541;49.894;10.886;2023-02-28T06:01:34;-0.20;99.90
60701;DHT22;46541;49.894;10.886;2023-02-28T06:04:03;-0.20;99.90
60701;DHT22;46541;49.894;10.886;2023-02-28T06:06:30;-0.20;99.90
60701;DHT22;46541;49.894;10.886;2023-02-28T06:08:57;-0.10;99.90
60701;DHT22;46541;49.894;10.886;2023-02-28T06:11:24;-0.10;99.90
60701;DHT22;46541;49.894;10.886;2023-02-28T06:13:58;0.00;99.90
60701;DHT22;46541;49.894;10.886;2023-02-28T06:16:30;0.00;99.90
60701;DHT22;46541;49.894;10.886;2023-02-28T06:18:59;0.00;99.90
60701;DHT22;46541;49.894;10.886;2023-02-28T06:21:26;0.00;99.90
60701;DHT22;46541;49.894;10.886;2023-02-28T06:23:57;0.00;99.90
60701;DHT22;46541;49.894;10.886;2023-02-28T06:26:24;0.00;99.90
60701;DHT22;46541;49.894;10.886;2023-02-28T06:28:51;0.00;99.90
60701;DHT22;46541;49.894;10.886;2023-02-28T06:31:19;0.00;99.90
60701;DHT22;46541;49.894;10.886;2023-02-28T06:33:46;0.00;99.90
60701;DHT22;46541;49.894;10.886;2023-02-28T06:36:14;0.00;99.90
60701;DHT22;46541;49.894;10.886;2023-02-28T06:38:42;0.10;99.90
60701;DHT22;46541;49.894;10.886;2023-02-28T06:41:09;0.10;99.90
60701;DHT22;46541;49.894;10.886;2023-02-28T06:43:39;0.20;99.90
60701;DHT22;46541;49.894;10.886;2023-02-28T06:46:08;0.20;99.90
60701;DHT22;46541;49.894;10.886;2023-02-28T06:48:35;0.20;99.90
60701;DHT22;46541;49.894;10.886;2023-02-28T06:51:10;0.20;99.90
60701;DHT22;46541;49.894;10.886;2023-02-28T06:53:37;0.20;99.90
60701;DHT22;46541;49.894;10.886;2023-02-28T06:56:06;0.30;99.90
60701;DHT22;46541;49.894;10.886;2023-02-28T06:58:34;0.30;99.90
60701;DHT22;46541;49.894;10.886;2023-02-28T07:01:01;0.30;99.90
60701;DHT22;46541;49.894;10.886;2023-02-28T07:03:28;0.30;99.90
60701;DHT22;46541;49.894;10.886;2023-02-28T07:05:55;0.40;99.90
60701;DHT22;46541;49.894;10.886;2023-02-28T07:08:25;0.40;99.90
60701;DHT22;46541;49.894;10.886;2023-02-28T07:10:54;0.40;99.90
60701;DHT22;46541;49.894;10.886;2023-02-28T07:13:22;0.40;99.90
60701;DHT22;46541;49.894;10.886;2023-02-28T07:16:00;0.40;99.90
60701;DHT22;46541;49.894;10.886;2023-02-28T07:18:27;0.40;99.90
60701;DHT22;46541;49.894;10.886;2023-02-28T07:20:54;0.40;99.90
60701;DHT22;46541;49.894;10.886;2023-02-28T07:23:21;0.50;99.90
60701;DHT22;46541;49.894;10.886;2023-02-28T07:25:50;0.50;99.90
60701;DHT22;46541;49.894;10.886;2023-02-28T07:28:17;0.60;99.90
60701;DHT22;46541;49.894;10.886;2023-02-28T07:30:43;0.50;99.90
60701;DHT22;46541;49.894;10.886;2023-02-28T07:33:10;0.50;99.90
60701;DHT22;46541;49.894;10.886;2023-02-28T07:35:37;0.60;99.90
60701;DHT22;46541;49.894;10.886;2023-02-28T07:38:04;0.70;99.90
60701;DHT22;46541;49.894;10.886;2023-02-28T07:40:31;0.70;99.90
60701;DHT22;46541;49.894;10.886;2023-02-28T07:42:59;0.70;99.90
60701;DHT22;46541;49.894;10.886;2023-02-28T07:45:27;0.80;99.90
60701;DHT22;46541;49.894;10.886;2023-02-28T07:47:55;0.90;99.90
60701;DHT22;46541;49.894;10.886;2023-02-28T07:50:23;0.90;99.90
60701;DHT22;46541;49.894;10.886;2023-02-28T07:52:52;1.00;99.90
60701;DHT22;46541;49.894;10.886;2023-02-28T07:55:19;1.00;99.90
60701;DHT22;46541;49.894;10.886;2023-02-28T07:57:46;1.10;99.90
60701;DHT22;46541;49.894;10.886;2023-02-28T08:00:13;1.20;99.90
60701;DHT22;46541;49.894;10.886;2023-02-28T08:02:40;1.30;99.90
60701;DHT22;46541;49.894;10.886;2023-02-28T08:05:08;1.30;99.90
60701;DHT22;46541;49.894;10.886;2023-02-28T08:07:35;1.40;99.90
60701;DHT22;46541;49.894;10.886;2023-02-28T08:10:02;1.40;99.90
60701;DHT22;46541;49.894;10.886;2023-02-28T08:12:32;1.50;99.90
60701;DHT22;46541;49.894;10.886;2023-02-28T08:14:58;1.60;99.90
60701;DHT22;46541;49.894;10.886;2023-02-28T08:17:25;1.60;99.90
60701;DHT22;46541;49.894;10.886;2023-02-28T08:19:52;1.70;99.90
60701;DHT22;46541;49.894;10.886;2023-02-28T08:22:19;1.80;99.90
60701;DHT22;46541;49.894;10.886;2023-02-28T08:24:45;2.00;99.90
60701;DHT22;46541;49.894;10.886;2023-02-28T08:27:12;2.10;99.90
60701;DHT22;46541;49.894;10.886;2023-02-28T08:29:39;2.20;99.90
60701;DHT22;46541;49.894;10.886;2023-02-28T08:32:07;2.20;99.90
60701;DHT22;46541;49.894;10.886;2023-02-28T08:34:45;2.30;99.90
60701;DHT22;46541;49.894;10.886;2023-02-28T08:37:13;2.30;99.90
60701;DHT22;46541;49.894;10.886;2023-02-28T08:39:40;2.20;99.90
60701;DHT22;46541;49.894;10.886;2023-02-28T08:42:07;2.20;99.90
60701;DHT22;46541;49.894;10.886;2023-02-28T08:44:34;2.40;99.90
60701;DHT22;46541;49.894;10.886;2023-02-28T08:47:00;2.40;99.90
60701;DHT22;46541;49.894;10.886;2023-02-28T08:49:27;2.60;99.90
60701;DHT22;46541;49.894;10.886;2023-02-28T08:51:55;2.70;99.90
60701;DHT22;46541;49.894;10.886;2023-02-28T08:54:24;2.80;99.90
60701;DHT22;46541;49.894;10.886;2023-02-28T08:56:51;3.00;99.90
60701;DHT22;46541;49.894;10.886;2023-02-28T08:59:17;3.10;99.90
60701;DHT22;46541;49.894;10.886;2023-02-28T09:01:44;3.10;99.90
60701;DHT22;46541;49.894;10.886;2023-02-28T09:04:11;3.10;99.90
60701;DHT22;46541;49.894;10.886;2023-02-28T09:06:42;3.20;99.90
60701;DHT22;46541;49.894;10.886;2023-02-28T09:09:10;3.10;99.90
60701;DHT22;46541;49.894;10.886;2023-02-28T09:11:37;3.20;99.90
60701;DHT22;46541;49.894;10.886;2023-02-28T09:14:04;3.10;99.90
60701;DHT22;46541;49.894;10.886;2023-02-28T09:16:32;3.20;99.90
60701;DHT22;46541;49.894;10.886;2023-02-28T09:18:59;3.10;99.90
60701;DHT22;46541;49.894;10.886;2023-02-28T09:21:27;3.10;99.90
60701;DHT22;46541;49.894;10.886;2023-02-28T09:23:54;3.10;99.90
60701;DHT22;46541;49.894;10.886;2023-02-28T09:26:26;3.10;99.90
60701;DHT22;46541;49.894;10.886;2023-02-28T09:29:04;3.10;99.90
60701;DHT22;46541;49.894;10.886;2023-02-28T09:31:31;3.10;99.90
60701;DHT22;46541;49.894;10.886;2023-02-28T09:33:58;3.10;99.90
60701;DHT22;46541;49.894;10.886;2023-02-28T09:36:27;3.30;99.90
60701;DHT22;46541;49.894;10.886;2023-02-28T09:39:10;3.30;99.90
60701;DHT22;46541;49.894;10.886;2023-02-28T09:41:41;3.30;99.90
60701;DHT22;46541;49.894;10.886;2023-02-28T09:44:31;3.30;99.90
60701;DHT22;46541;49.894;10.886;2023-02-28T09:47:28;3.40;99.90
60701;DHT22;46541;49.894;10.886;2023-02-28T09:49:59;3.50;99.90
60701;DHT22;46541;49.894;10.886;2023-02-28T09:52:31;3.50;99.90
60701;DHT22;46541;49.894;10.886;2023-02-28T09:58:03;3.50;99.90
60701;DHT22;46541;49.894;10.886;2023-02-28T10:00:36;3.60;99.90
60701;DHT22;46541;49.894;10.886;2023-02-28T10:03:20;3.70;99.90
60701;DHT22;46541;49.894;10.886;2023-02-28T10:08:55;3.70;99.90
60701;DHT22;46541;49.894;10.886;2023-02-28T10:11:25;3.60;99.70
60701;DHT22;46541;49.894;10.886;2023-02-28T10:13:58;3.50;99.80
60701;DHT22;46541;49.894;10.886;2023-02-28T10:16:33;3.50;99.90
60701;DHT22;46541;49.894;10.886;2023-02-28T10:21:49;3.70;99.80
60701;DHT22;46541;49.894;10.886;2023-02-28T10:26:59;3.70;99.10
60701;DHT22;46541;49.894;10.886;2023-02-28T10:29:27;3.80;99.60
60701;DHT22;46541;49.894;10.886;2023-02-28T10:31:54;4.00;99.90
60701;DHT22;46541;49.894;10.886;2023-02-28T10:34:21;4.00;99.20
60701;DHT22;46541;49.894;10.886;2023-02-28T10:36:49;4.10;99.40
60701;DHT22;46541;49.894;10.886;2023-02-28T10:39:55;4.20;98.00
60701;DHT22;46541;49.894;10.886;2023-02-28T10:42:28;4.30;97.80
60701;DHT22;46541;49.894;10.886;2023-02-28T10:45:13;4.40;97.70
60701;DHT22;46541;49.894;10.886;2023-02-28T10:48:26;4.50;97.20
60701;DHT22;46541;49.894;10.886;2023-02-28T10:50:54;4.70;97.00
60701;DHT22;46541;49.894;10.886;2023-02-28T10:56:12;4.60;96.10
60701;DHT22;46541;49.894;10.886;2023-02-28T11:01:40;4.40;96.10
60701;DHT22;46541;49.894;10.886;2023-02-28T11:07:04;4.60;94.90
60701;DHT22;46541;49.894;10.886;2023-02-28T11:09:34;4.70;94.60
60701;DHT22;46541;49.894;10.886;2023-02-28T11:12:07;4.60;94.90
60701;DHT22;46541;49.894;10.886;2023-02-28T11:14:57;4.70;94.50
60701;DHT22;46541;49.894;10.886;2023-02-28T11:17:27;4.50;94.80
60701;DHT22;46541;49.894;10.886;2023-02-28T11:20:05;4.50;94.50
60701;DHT22;46541;49.894;10.886;2023-02-28T11:22:37;4.50;94.00
60701;DHT22;46541;49.894;10.886;2023-02-28T11:25:30;4.50;94.40
60701;DHT22;46541;49.894;10.886;2023-02-28T11:28:02;4.20;94.60
60701;DHT22;46541;49.894;10.886;2023-02-28T11:30:38;4.40;94.60
60701;DHT22;46541;49.894;10.886;2023-02-28T11:36:11;4.30;94.50
60701;DHT22;46541;49.894;10.886;2023-02-28T11:38:38;4.70;94.20
60701;DHT22;46541;49.894;10.886;2023-02-28T11:41:21;4.90;93.80
60701;DHT22;46541;49.894;10.886;2023-02-28T11:49:35;5.80;92.20
60701;DHT22;46541;49.894;10.886;2023-02-28T12:03:36;5.90;88.30
60701;DHT22;46541;49.894;10.886;2023-02-28T12:08:48;5.90;88.30
60701;DHT22;46541;49.894;10.886;2023-02-28T12:11:51;6.00;87.70
60701;DHT22;46541;49.894;10.886;2023-02-28T12:17:27;6.20;87.70
60701;DHT22;46541;49.894;10.886;2023-02-28T12:25:48;6.10;86.50
60701;DHT22;46541;49.894;10.886;2023-02-28T12:28:22;6.20;87.90
60701;DHT22;46541;49.894;10.886;2023-02-28T12:33:52;6.40;84.50
60701;DHT22;46541;49.894;10.886;2023-02-28T12:36:20;6.40;84.60
60701;DHT22;46541;49.894;10.886;2023-02-28T12:39:37;6.40;84.90
60701;DHT22;46541;49.894;10.886;2023-02-28T12:44:35;6.30;85.10
60701;DHT22;46541;49.894;10.886;2023-02-28T12:47:09;6.10;85.50
60701;DHT22;46541;49.894;10.886;2023-02-28T12:49:55;6.00;86.50
60701;DHT22;46541;49.894;10.886;2023-02-28T13:09:55;6.40;84.80
60701;DHT22;46541;49.894;10.886;2023-02-28T13:12:23;6.30;85.20
60701;DHT22;46541;49.894;10.886;2023-02-28T13:14:50;6.20;85.10
60701;DHT22;46541;49.894;10.886;2023-02-28T13:17:27;6.40;85.90
60701;DHT22;46541;49.894;10.886;2023-02-28T13:22:42;6.30;84.80
60701;DHT22;46541;49.894;10.886;2023-02-28T13:27:51;6.40;84.10
60701;DHT22;46541;49.894;10.886;2023-02-28T13:33:31;6.30;84.10
60701;DHT22;46541;49.894;10.886;2023-02-28T13:39:03;6.20;85.40
60701;DHT22;46541;49.894;10.886;2023-02-28T13:41:47;6.20;85.60
60701;DHT22;46541;49.894;10.886;2023-02-28T13:44:21;6.30;84.90
60701;DHT22;46541;49.894;10.886;2023-02-28T14:00:19;6.00;86.90
60701;DHT22;46541;49.894;10.886;2023-02-28T14:05:23;6.00;87.70
60701;DHT22;46541;49.894;10.886;2023-02-28T14:08:03;6.00;88.10
60701;DHT22;46541;49.894;10.886;2023-02-28T14:10:35;5.90;88.30
60701;DHT22;46541;49.894;10.886;2023-02-28T14:13:13;5.90;89.70
60701;DHT22;46541;49.894;10.886;2023-02-28T14:15:54;5.90;88.20
60701;DHT22;46541;49.894;10.886;2023-02-28T14:18:37;5.80;89.00
60701;DHT22;46541;49.894;10.886;2023-02-28T14:21:28;5.80;88.70
60701;DHT22;46541;49.894;10.886;2023-02-28T14:24:41;5.70;89.30
60701;DHT22;46541;49.894;10.886;2023-02-28T14:33:57;5.60;90.10
60701;DHT22;46541;49.894;10.886;2023-02-28T14:36:37;5.60;90.40
60701;DHT22;46541;49.894;10.886;2023-02-28T14:39:19;5.70;90.10
60701;DHT22;46541;49.894;10.886;2023-02-28T14:41:46;5.70;90.30
60701;DHT22;46541;49.894;10.886;2023-02-28T14:44:17;5.70;90.20
60701;DHT22;46541;49.894;10.886;2023-02-28T14:46:48;5.70;90.60
60701;DHT22;46541;49.894;10.886;2023-02-28T14:52:15;5.70;90.10
60701;DHT22;46541;49.894;10.886;2023-02-28T14:54:43;5.70;90.60
60701;DHT22;46541;49.894;10.886;2023-02-28T14:57:32;5.60;90.30
60701;DHT22;46541;49.894;10.886;2023-02-28T15:02:33;5.70;90.70
60701;DHT22;46541;49.894;10.886;2023-02-28T15:08:05;5.70;90.50
60701;DHT22;46541;49.894;10.886;2023-02-28T15:10:33;5.60;90.50
60701;DHT22;46541;49.894;10.886;2023-02-28T15:13:05;5.60;90.80
60701;DHT22;46541;49.894;10.886;2023-02-28T15:15:56;5.40;90.10
60701;DHT22;46541;49.894;10.886;2023-02-28T15:21:06;5.40;90.30
60701;DHT22;46541;49.894;10.886;2023-02-28T15:23:35;5.40;91.10
60701;DHT22;46541;49.894;10.886;2023-02-28T15:26:03;5.40;90.80
60701;DHT22;46541;49.894;10.886;2023-02-28T15:28:31;5.30;90.90
60701;DHT22;46541;49.894;10.886;2023-02-28T15:31:01;5.30;90.50
60701;DHT22;46541;49.894;10.886;2023-02-28T15:33:31;5.30;90.30
60701;DHT22;46541;49.894;10.886;2023-02-28T15:36:18;5.40;91.00
60701;DHT22;46541;49.894;10.886;2023-02-28T15:38:51;5.30;90.90
60701;DHT22;46541;49.894;10.886;2023-02-28T15:43:49;5.30;90.70
60701;DHT22;46541;49.894;10.886;2023-02-28T15:46:15;5.30;90.90
60701;DHT22;46541;49.894;10.886;2023-02-28T15:48:52;5.30;90.60
60701;DHT22;46541;49.894;10.886;2023-02-28T15:51:36;5.30;90.60
60701;DHT22;46541;49.894;10.886;2023-02-28T15:54:08;5.20;90.50
60701;DHT22;46541;49.894;10.886;2023-02-28T15:56:48;5.10;90.90
60701;DHT22;46541;49.894;10.886;2023-02-28T15:59:25;5.10;91.40
60701;DHT22;46541;49.894;10.886;2023-02-28T16:07:28;5.00;91.10
60701;DHT22;46541;49.894;10.886;2023-02-28T16:09:55;5.00;91.20
60701;DHT22;46541;49.894;10.886;2023-02-28T16:12:26;5.00;91.20
60701;DHT22;46541;49.894;10.886;2023-02-28T16:14:55;5.00;91.00
60701;DHT22;46541;49.894;10.886;2023-02-28T16:17:28;5.00;91.50
60701;DHT22;46541;49.894;10.886;2023-02-28T16:19:55;4.90;91.40
60701;DHT22;46541;49.894;10.886;2023-02-28T16:22:22;4.90;91.50
60701;DHT22;46541;49.894;10.886;2023-02-28T16:24:49;4.90;91.70
60701;DHT22;46541;49.894;10.886;2023-02-28T16:27:35;4.90;91.70
60701;DHT22;46541;49.894;10.886;2023-02-28T16:30:04;4.80;91.70
60701;DHT22;46541;49.894;10.886;2023-02-28T16:32:35;4.80;91.70
60701;DHT22;46541;49.894;10.886;2023-02-28T16:35:05;4.80;92.50
60701;DHT22;46541;49.894;10.886;2023-02-28T16:37:32;4.80;92.10
60701;DHT22;46541;49.894;10.886;2023-02-28T16:39:58;4.80;92.20
60701;DHT22;46541;49.894;10.886;2023-02-28T16:42:27;4.70;92.10
60701;DHT22;46541;49.894;10.886;2023-02-28T16:44:55;4.70;92.40
60701;DHT22;46541;49.894;10.886;2023-02-28T16:47:22;4.70;92.60
60701;DHT22;46541;49.894;10.886;2023-02-28T16:49:49;4.70;92.40
60701;DHT22;46541;49.894;10.886;2023-02-28T16:52:15;4.70;93.40
60701;DHT22;46541;49.894;10.886;2023-02-28T16:54:42;4.60;92.70
60701;DHT22;46541;49.894;10.886;2023-02-28T16:57:22;4.50;93.00
60701;DHT22;46541;49.894;10.886;2023-02-28T16:59:50;4.50;93.10
60701;DHT22;46541;49.894;10.886;2023-02-28T17:02:19;4.50;93.70
60701;DHT22;46541;49.894;10.886;2023-02-28T17:04:47;4.50;94.20
60701;DHT22;46541;49.894;10.886;2023-02-28T17:07:15;4.50;94.30
60701;DHT22;46541;49.894;10.886;2023-02-28T17:09:45;4.40;93.60
60701;DHT22;46541;49.894;10.886;2023-02-28T17:12:12;4.40;93.50
60701;DHT22;46541;49.894;10.886;2023-02-28T17:14:39;4.40;93.80
60701;DHT22;46541;49.894;10.886;2023-02-28T17:17:06;4.40;94.40
60701;DHT22;46541;49.894;10.886;2023-02-28T17:19:33;4.40;94.40
60701;DHT22;46541;49.894;10.886;2023-02-28T17:22:02;4.30;94.60
60701;DHT22;46541;49.894;10.886;2023-02-28T17:24:29;4.30;94.90
60701;DHT22;46541;49.894;10.886;2023-02-28T17:26:57;4.30;94.90
60701;DHT22;46541;49.894;10.886;2023-02-28T17:29:24;4.20;95.20
60701;DHT22;46541;49.894;10.886;2023-02-28T17:31:51;4.30;95.60
60701;DHT22;46541;49.894;10.886;2023-02-28T17:34:18;4.20;95.50
60701;DHT22;46541;49.894;10.886;2023-02-28T17:36:47;4.20;95.80
60701;DHT22;46541;49.894;10.886;2023-02-28T17:39:16;4.10;95.90
60701;DHT22;46541;49.894;10.886;2023-02-28T17:41:54;4.10;96.60
60701;DHT22;46541;49.894;10.886;2023-02-28T17:44:24;4.10;96.40
60701;DHT22;46541;49.894;10.886;2023-02-28T17:46:53;4.00;97.20
60701;DHT22;46541;49.894;10.886;2023-02-28T17:49:20;4.00;97.50
60701;DHT22;46541;49.894;10.886;2023-02-28T17:51:47;4.00;98.00
60701;DHT22;46541;49.894;10.886;2023-02-28T17:54:14;4.00;97.60
60701;DHT22;46541;49.894;10.886;2023-02-28T17:56:44;4.00;97.70
60701;DHT22;46541;49.894;10.886;2023-02-28T17:59:12;4.00;97.60
60701;DHT22;46541;49.894;10.886;2023-02-28T18:01:39;4.00;98.00
60701;DHT22;46541;49.894;10.886;2023-02-28T18:04:06;3.90;98.00
60701;DHT22;46541;49.894;10.886;2023-02-28T18:06:38;3.90;98.50
60701;DHT22;46541;49.894;10.886;2023-02-28T18:09:21;3.90;98.80
60701;DHT22;46541;49.894;10.886;2023-02-28T18:11:53;3.80;99.20
60701;DHT22;46541;49.894;10.886;2023-02-28T18:14:22;3.80;99.10
60701;DHT22;46541;49.894;10.886;2023-02-28T18:16:51;3.70;99.70
60701;DHT22;46541;49.894;10.886;2023-02-28T18:19:18;3.70;99.90
60701;DHT22;46541;49.894;10.886;2023-02-28T18:21:48;3.80;99.90
60701;DHT22;46541;49.894;10.886;2023-02-28T18:24:15;3.70;99.90
60701;DHT22;46541;49.894;10.886;2023-02-28T18:26:43;3.70;99.90
60701;DHT22;46541;49.894;10.886;2023-02-28T18:29:19;3.60;99.90
60701;DHT22;46541;49.894;10.886;2023-02-28T18:31:47;3.60;99.90
60701;DHT22;46541;49.894;10.886;2023-02-28T18:34:15;3.60;99.90
60701;DHT22;46541;49.894;10.886;2023-02-28T18:36:42;3.60;99.90
60701;DHT22;46541;49.894;10.886;2023-02-28T18:39:09;3.50;99.90
60701;DHT22;46541;49.894;10.886;2023-02-28T18:41:38;3.50;99.90
60701;DHT22;46541;49.894;10.886;2023-02-28T18:44:05;3.40;99.90
60701;DHT22;46541;49.894;10.886;2023-02-28T18:46:45;3.40;99.90